Terminal Aerodrome Forecast
Issued by NWS Sioux Falls, SD

Home | Current Version | Previous Version | Graphics & Text | Print | Product List | Glossary Off
Versions: 1 2 3 4 5 6 7 8 9 10 11 12 13 14 15 16 17

000
FTUS43 KFSD 241120
TAFHON
TAF
KHON 241120Z 2412/2512 33007KT P6SM SCT250
     FM241400 34011KT P6SM BKN180
     FM241700 33011KT P6SM BKN120
      TEMPO 2417/2420 -TSRA SCT050 BKN100CB
     FM242100 33011KT P6SM SCT110
     FM250100 33007KT P6SM FEW250
     FM250400 VRB03KT P6SM SKC=

USA.gov is the U.S. government's official web portal to all federal, state and local government web resources and services.